Time;durP1;ratioP1;P1;durP2;ratioP2;P2;SDS_P1;SDS_P2;PMS_P1;PMS_P2;Temp;Humidity;BMP_temperature;BMP_pressure;BME280_temperature;BME280_humidity;BME280_pressure;Samples;Min_cycle;Max_cycle;Signal;HPM_P1;HPM_P2
2020/12/23 00:00:49;;;;;;;22.07;10.87;;;;;;;9.28;84.74;98842.75;1693410;85;21080;-62
2020/12/23 00:03:14;;;;;;;23.50;9.90;;;;;;;9.28;84.82;98845.46;1693700;85;21126;-65
2020/12/23 00:05:40;;;;;;;17.20;8.03;;;;;;;9.26;84.94;98832.81;1693769;84;21546;-64
2020/12/23 00:08:06;;;;;;;20.00;9.23;;;;;;;9.26;84.76;98830.69;1693887;85;21504;-61
2020/12/23 00:10:32;;;;;;;17.50;7.63;;;;;;;9.26;84.53;98841.52;1693781;83;21572;-62
2020/12/23 00:12:58;;;;;;;21.40;9.10;;;;;;;9.26;84.64;98840.16;1706828;83;21265;-62
2020/12/23 00:15:24;;;;;;;17.17;8.07;;;;;;;9.23;84.63;98838.34;1714567;83;21264;-61
2020/12/23 00:17:49;;;;;;;18.90;8.27;;;;;;;9.21;84.53;98836.54;1707198;83;21609;-64
2020/12/23 00:20:15;;;;;;;19.83;8.73;;;;;;;9.15;84.33;98837.05;1708496;83;21154;-62
2020/12/23 00:22:41;;;;;;;18.57;8.10;;;;;;;9.10;84.62;98836.73;1712666;83;21525;-63
2020/12/23 00:25:07;;;;;;;20.17;9.43;;;;;;;9.07;85.00;98845.48;1709727;83;21125;-62
2020/12/23 00:27:32;;;;;;;18.93;8.87;;;;;;;9.05;85.38;98846.95;1704287;83;21106;-63
2020/12/23 00:29:59;;;;;;;18.83;8.43;;;;;;;9.08;85.48;98852.48;1697346;84;21127;-64
2020/12/23 00:32:27;;;;;;;24.00;10.13;;;;;;;9.12;85.69;98855.31;1697485;84;21109;-62
2020/12/23 00:34:53;;;;;;;22.80;10.43;;;;;;;9.14;85.98;98861.20;1697015;84;21130;-62
2020/12/23 00:37:18;;;;;;;20.60;10.07;;;;;;;9.17;86.00;98859.98;1697247;84;21128;-64
2020/12/23 00:39:45;;;;;;;19.47;8.87;;;;;;;9.22;86.10;98860.34;1697262;84;21148;-63
2020/12/23 00:42:11;;;;;;;20.83;10.30;;;;;;;9.25;85.96;98865.64;1697461;84;21158;-62
2020/12/23 00:44:36;;;;;;;23.60;10.33;;;;;;;9.28;85.77;98877.14;1697409;84;21251;-63
2020/12/23 00:47:02;;;;;;;20.67;10.33;;;;;;;9.30;85.44;98881.09;1697224;84;21250;-61
2020/12/23 00:49:28;;;;;;;21.10;10.67;;;;;;;9.29;85.78;98881.44;1697300;84;21313;-64
2020/12/23 00:51:54;;;;;;;24.00;10.80;;;;;;;9.39;85.83;98890.48;1697453;84;21247;-62
2020/12/23 00:54:20;;;;;;;22.37;11.17;;;;;;;9.46;86.11;98896.95;1697291;84;21561;-63
2020/12/23 00:56:46;;;;;;;21.07;9.77;;;;;;;9.51;86.54;98902.72;1697439;84;21117;-63
2020/12/23 00:59:11;;;;;;;20.07;9.50;;;;;;;9.44;87.04;98910.03;1697197;84;21133;-59
2020/12/23 01:01:37;;;;;;;24.33;11.17;;;;;;;9.49;87.33;98912.52;1697356;84;21251;-61
2020/12/23 01:04:03;;;;;;;22.47;10.50;;;;;;;9.46;87.47;98905.06;1697459;84;21549;-65
2020/12/23 01:06:29;;;;;;;22.97;11.23;;;;;;;9.40;88.14;98907.77;1697253;84;21681;-65
2020/12/23 01:08:55;;;;;;;22.90;11.33;;;;;;;9.38;88.46;98903.78;1697235;84;21120;-65
2020/12/23 01:11:21;;;;;;;25.27;12.07;;;;;;;9.33;88.60;98903.45;1697568;84;21211;-62
2020/12/23 01:13:47;;;;;;;23.23;10.67;;;;;;;9.32;88.88;98893.75;1697589;84;21129;-63
2020/12/23 01:16:21;;;;;;;25.27;11.17;;;;;;;9.33;89.02;98888.56;1697226;84;21125;-64
2020/12/23 01:18:47;;;;;;;23.23;11.03;;;;;;;9.37;89.14;98897.61;1698272;84;21149;-61
2020/12/23 01:21:13;;;;;;;27.80;12.63;;;;;;;9.37;89.24;98899.52;1695304;84;21108;-63
2020/12/23 01:23:41;;;;;;;27.97;10.97;;;;;;;9.39;89.20;98902.11;1695237;85;21560;-62
2020/12/23 01:26:07;;;;;;;22.47;11.17;;;;;;;9.42;89.08;98900.09;1696454;84;21219;-66
2020/12/23 01:28:33;;;;;;;24.47;12.00;;;;;;;9.44;88.76;98888.94;1695474;84;21285;-63
2020/12/23 01:30:58;;;;;;;25.53;12.60;;;;;;;9.44;88.51;98897.06;1695306;84;21553;-64
2020/12/23 01:33:24;;;;;;;26.90;13.07;;;;;;;9.43;88.26;98895.47;1695241;85;21525;-63
2020/12/23 01:35:51;;;;;;;25.57;12.20;;;;;;;9.48;88.38;98898.77;1695726;85;21152;-66
2020/12/23 01:38:16;;;;;;;28.17;13.50;;;;;;;9.53;88.29;98889.63;1695184;85;21121;-63
2020/12/23 01:40:42;;;;;;;27.10;14.53;;;;;;;9.55;88.42;98888.75;1695423;85;21550;-65
2020/12/23 01:43:08;;;;;;;25.70;12.60;;;;;;;9.56;88.33;98891.09;1695226;84;21113;-63
2020/12/23 01:45:36;;;;;;;25.90;13.33;;;;;;;9.59;88.20;98883.69;1696578;84;21121;-62
2020/12/23 01:48:11;;;;;;;26.37;12.83;;;;;;;9.56;88.13;98886.27;1695195;85;21194;-61
2020/12/23 01:50:37;;;;;;;25.20;12.53;;;;;;;9.53;87.92;98874.73;1694042;84;21129;-63
2020/12/23 01:53:02;;;;;;;26.07;13.10;;;;;;;9.54;87.45;98880.38;1695188;84;21112;-63
2020/12/23 01:55:28;;;;;;;23.52;12.93;;;;;;;9.50;87.47;98884.33;1695131;85;21143;-64
2020/12/23 01:57:54;;;;;;;26.70;13.10;;;;;;;9.51;87.59;98885.12;1695314;85;21155;-61
2020/12/23 02:00:20;;;;;;;24.50;12.73;;;;;;;9.50;87.84;98884.88;1673431;85;21498;-62
2020/12/23 02:02:45;;;;;;;23.57;12.97;;;;;;;9.49;88.14;98892.20;1695228;84;21121;-64
2020/12/23 02:05:11;;;;;;;27.63;12.30;;;;;;;9.48;88.19;98883.88;1673118;84;21120;-62
2020/12/23 02:07:37;;;;;;;25.93;11.73;;;;;;;9.46;88.26;98875.28;1695440;84;21289;-63
2020/12/23 02:10:06;;;;;;;25.47;12.13;;;;;;;9.40;88.44;98879.34;1695263;85;21290;-63
2020/12/23 02:12:32;;;;;;;24.90;11.97;;;;;;;9.34;88.48;98878.50;1695180;84;21151;-63
2020/12/23 02:15:13;;;;;;;27.57;11.73;;;;;;;9.32;88.46;98882.13;1695340;85;21138;-64
2020/12/23 02:17:41;;;;;;;24.30;11.87;;;;;;;9.37;88.54;98888.69;1695195;84;21558;-62
2020/12/23 02:20:11;;;;;;;22.60;9.97;;;;;;;9.36;88.62;98883.84;1695139;84;21590;-63
2020/12/23 02:22:38;;;;;;;25.60;12.00;;;;;;;9.32;88.80;98884.83;1695199;84;21126;-63
2020/12/23 02:25:04;;;;;;;22.33;10.77;;;;;;;9.35;88.82;98882.80;1695160;84;21583;-63
2020/12/23 02:27:30;;;;;;;21.60;10.37;;;;;;;9.36;88.60;98869.51;1695199;85;21557;-63
2020/12/23 02:29:57;;;;;;;22.27;9.77;;;;;;;9.39;88.58;98868.28;1695193;84;21097;-62
2020/12/23 02:32:24;;;;;;;21.90;10.77;;;;;;;9.39;88.46;98881.81;1695528;85;21600;-63
2020/12/23 02:34:50;;;;;;;22.83;11.30;;;;;;;9.39;88.46;98872.34;1695268;84;21132;-64
2020/12/23 02:37:15;;;;;;;25.00;10.97;;;;;;;9.46;88.34;98883.41;1695177;84;21124;-63
2020/12/23 02:39:44;;;;;;;27.97;11.37;;;;;;;9.44;87.96;98894.35;1695200;84;21145;-62
2020/12/23 02:42:10;;;;;;;27.10;11.50;;;;;;;9.42;87.94;98891.97;1695191;85;21137;-62
2020/12/23 02:44:35;;;;;;;22.70;9.93;;;;;;;9.39;88.03;98883.72;1695512;85;21105;-61
2020/12/23 02:47:04;;;;;;;25.13;11.73;;;;;;;9.38;88.28;98888.90;1695403;85;21121;-58
2020/12/23 02:49:30;;;;;;;24.93;10.77;;;;;;;9.39;88.42;98901.31;1695180;85;21577;-61
2020/12/23 02:51:56;;;;;;;25.20;11.07;;;;;;;9.36;88.19;98895.22;1695631;84;21503;-63
2020/12/23 02:54:23;;;;;;;25.20;10.90;;;;;;;9.27;88.46;98890.44;1695391;85;21172;-61
2020/12/23 02:56:49;;;;;;;29.27;11.27;;;;;;;9.27;88.67;98878.26;1695346;84;21317;-62
2020/12/23 02:59:15;;;;;;;24.40;11.53;;;;;;;9.29;88.66;98868.70;1695133;85;21258;-65
2020/12/23 03:01:40;;;;;;;27.73;11.13;;;;;;;9.32;88.74;98869.38;1695134;84;21152;-63
2020/12/23 03:04:07;;;;;;;23.03;10.27;;;;;;;9.31;88.77;98869.15;1695657;84;21124;-62
2020/12/23 03:06:33;;;;;;;24.23;10.37;;;;;;;9.30;88.91;98875.67;1695399;84;21109;-63
2020/12/23 03:09:04;;;;;;;25.40;11.00;;;;;;;9.31;88.89;98867.80;1695359;84;21113;-64
2020/12/23 03:11:29;;;;;;;23.83;11.27;;;;;;;9.32;88.64;98862.62;1695147;84;21370;-63
2020/12/23 03:13:55;;;;;;;22.30;10.37;;;;;;;9.31;88.74;98857.52;1695693;84;21251;-63
2020/12/23 03:16:21;;;;;;;22.20;10.67;;;;;;;9.46;88.39;98870.43;1695383;85;21085;-62
2020/12/23 03:18:47;;;;;;;23.73;10.03;;;;;;;9.53;88.21;98867.96;1696092;84;21541;-62
2020/12/23 03:21:13;;;;;;;21.37;10.07;;;;;;;9.52;88.33;98864.46;1697549;84;21105;-60
2020/12/23 03:23:39;;;;;;;19.07;9.00;;;;;;;9.54;88.39;98876.33;1697551;84;21470;-62
2020/12/23 03:26:05;;;;;;;23.33;9.70;;;;;;;9.56;88.41;98870.80;1697202;84;21273;-63
2020/12/23 03:28:32;;;;;;;22.77;9.47;;;;;;;9.55;88.23;98872.50;1697290;84;21517;-62
2020/12/23 03:30:59;;;;;;;21.37;9.67;;;;;;;9.54;87.98;98876.33;1697123;84;21170;-64
2020/12/23 03:33:24;;;;;;;23.87;9.43;;;;;;;9.53;87.71;98876.88;1697714;84;21135;-64
2020/12/23 03:35:51;;;;;;;21.25;10.25;;;;;;;9.59;87.67;98875.56;1697351;84;21593;-64
2020/12/23 03:38:16;;;;;;;22.32;9.33;;;;;;;9.66;87.65;98880.42;1697131;84;21117;-64
2020/12/23 03:40:42;;;;;;;23.07;9.77;;;;;;;9.66;87.75;98872.30;1697136;84;21124;-62
2020/12/23 03:43:08;;;;;;;20.80;8.53;;;;;;;9.64;87.92;98879.39;1697333;84;21113;-63
2020/12/23 03:45:34;;;;;;;20.20;9.70;;;;;;;9.65;87.95;98890.45;1697693;84;21632;-64
2020/12/23 03:48:00;;;;;;;21.30;8.97;;;;;;;9.63;87.74;98894.64;1697165;84;21553;-64
2020/12/23 03:50:26;;;;;;;19.40;9.33;;;;;;;9.58;87.78;98890.22;1697323;84;21096;-61
2020/12/23 03:52:51;;;;;;;20.50;9.37;;;;;;;9.56;87.52;98892.45;1697132;84;21575;-62
2020/12/23 03:55:17;;;;;;;21.10;9.00;;;;;;;9.64;87.51;98886.16;1697220;84;21583;-62
2020/12/23 03:57:43;;;;;;;20.87;9.33;;;;;;;9.63;87.59;98879.74;1697282;84;21550;-62
2020/12/23 04:00:11;;;;;;;18.93;8.07;;;;;;;9.62;87.77;98871.38;1697398;84;21572;-62
2020/12/23 04:02:36;;;;;;;18.13;8.67;;;;;;;9.65;87.88;98864.73;1697145;84;21187;-64
2020/12/23 04:05:03;;;;;;;20.43;9.27;;;;;;;9.66;87.79;98856.84;1697151;84;21545;-65
2020/12/23 04:07:29;;;;;;;21.63;9.30;;;;;;;9.62;87.74;98867.32;1697164;84;21124;-62
2020/12/23 04:09:55;;;;;;;21.03;9.37;;;;;;;9.63;87.60;98874.33;1697146;84;21089;-62
2020/12/23 04:12:20;;;;;;;20.72;9.60;;;;;;;9.62;87.39;98873.53;1697128;84;21154;-65
2020/12/23 04:14:46;;;;;;;20.17;9.77;;;;;;;9.73;87.37;98882.57;1697547;84;21109;-64
2020/12/23 04:17:12;;;;;;;21.62;10.25;;;;;;;9.76;87.30;98881.89;1697186;84;21147;-63
2020/12/23 04:19:38;;;;;;;19.60;9.37;;;;;;;9.82;87.27;98885.98;1701996;84;21639;-64
2020/12/23 04:22:04;;;;;;;21.20;8.90;;;;;;;9.84;87.11;98884.52;1705371;84;21112;-61
2020/12/23 04:24:30;;;;;;;20.00;9.00;;;;;;;9.80;86.80;98883.60;1705237;84;21595;-63
2020/12/23 04:26:56;;;;;;;20.70;9.93;;;;;;;9.74;86.86;98879.54;1705232;84;21125;-63
2020/12/23 04:29:22;;;;;;;19.67;9.97;;;;;;;9.72;86.59;98887.19;1705107;84;21117;-60
2020/12/23 04:31:48;;;;;;;21.53;10.33;;;;;;;9.72;86.41;98879.06;1705183;84;21162;-64
2020/12/23 04:34:14;;;;;;;23.03;10.00;;;;;;;9.78;86.44;98879.09;1705770;84;21112;-62
2020/12/23 04:36:40;;;;;;;18.42;8.33;;;;;;;9.86;86.49;98880.13;1705438;84;21529;-60
2020/12/23 04:39:06;;;;;;;20.10;9.13;;;;;;;9.89;86.65;98879.45;1705202;84;21663;-62
2020/12/23 04:41:34;;;;;;;19.52;9.38;;;;;;;9.91;86.76;98881.24;1705184;84;21112;-63
2020/12/23 04:44:02;;;;;;;21.70;9.10;;;;;;;9.88;86.85;98875.94;1705041;84;21299;-63
2020/12/23 04:46:31;;;;;;;19.00;8.70;;;;;;;9.85;86.74;98880.69;1703756;84;21138;-62
2020/12/23 04:48:58;;;;;;;17.13;8.70;;;;;;;9.79;86.71;98881.22;1705088;84;21120;-60
2020/12/23 04:51:34;;;;;;;18.47;8.70;;;;;;;9.77;86.56;98872.65;1705098;84;21108;-61
2020/12/23 04:54:01;;;;;;;21.63;10.30;;;;;;;9.82;86.63;98885.42;1705101;84;21150;-62
2020/12/23 04:56:29;;;;;;;21.05;9.63;;;;;;;9.81;86.71;98883.84;1705168;84;21132;-63
2020/12/23 04:58:55;;;;;;;23.02;10.35;;;;;;;9.81;86.78;98878.42;1705274;84;21116;-60
2020/12/23 05:01:21;;;;;;;19.77;9.07;;;;;;;9.74;86.83;98876.83;1705164;84;21136;-59
2020/12/23 05:03:47;;;;;;;19.37;9.87;;;;;;;9.69;86.69;98877.04;1705307;84;21261;-60
2020/12/23 05:06:13;;;;;;;21.90;10.17;;;;;;;9.65;86.74;98869.35;1705415;84;21229;-59
2020/12/23 05:08:39;;;;;;;23.27;10.47;;;;;;;9.67;86.47;98876.59;1705114;84;21134;-61
2020/12/23 05:11:09;;;;;;;21.80;9.93;;;;;;;9.68;86.45;98879.51;1705213;84;21140;-62
2020/12/23 05:13:36;;;;;;;18.30;9.93;;;;;;;9.69;86.62;98887.31;1705219;84;21120;-63
2020/12/23 05:16:04;;;;;;;19.37;9.50;;;;;;;9.68;86.70;98886.28;1704579;84;21109;-61
2020/12/23 05:18:40;;;;;;;17.93;9.00;;;;;;;9.73;86.71;98877.16;1704258;84;21148;-62
2020/12/23 05:21:14;;;;;;;19.65;9.20;;;;;;;9.65;86.83;98876.12;1703991;84;21614;-63
2020/12/23 05:23:49;;;;;;;18.12;9.65;;;;;;;9.60;86.84;98874.41;1705609;84;21136;-63
2020/12/23 05:26:15;;;;;;;21.10;10.10;;;;;;;9.60;86.74;98867.64;1705260;84;21121;-63
2020/12/23 05:28:43;;;;;;;18.27;8.93;;;;;;;9.56;86.93;98864.02;1705346;84;21116;-61
2020/12/23 05:31:12;;;;;;;19.50;9.27;;;;;;;9.66;86.85;98875.00;1705378;84;21145;-61
2020/12/23 05:33:40;;;;;;;18.35;9.20;;;;;;;9.65;86.89;98878.83;1705307;84;21140;-58
2020/12/23 05:36:09;;;;;;;18.15;9.10;;;;;;;9.64;87.00;98875.33;1705799;84;21539;-63
2020/12/23 05:38:35;;;;;;;23.55;10.60;;;;;;;9.68;86.98;98878.95;1705544;84;21117;-61
2020/12/23 05:41:04;;;;;;;20.60;9.83;;;;;;;9.63;86.91;98875.68;1705292;84;21198;-64
2020/12/23 05:43:30;;;;;;;20.67;10.37;;;;;;;9.59;86.88;98875.56;1705396;84;21170;-63
2020/12/23 05:46:05;;;;;;;23.20;10.30;;;;;;;9.55;86.92;98882.77;1705307;84;21537;-61
2020/12/23 05:48:32;;;;;;;22.37;10.80;;;;;;;9.61;86.88;98877.92;1705449;84;21514;-63
2020/12/23 05:50:59;;;;;;;21.90;10.23;;;;;;;9.66;86.83;98878.51;1705610;84;21545;-64
2020/12/23 05:53:29;;;;;;;24.15;11.30;;;;;;;9.63;87.04;98881.09;1705247;84;21100;-64
2020/12/23 05:55:55;;;;;;;24.00;11.00;;;;;;;9.64;87.08;98883.45;1705285;84;21104;-63
2020/12/23 05:58:33;;;;;;;22.25;10.20;;;;;;;9.64;87.15;98867.77;1705247;84;21112;-65
2020/12/23 06:01:02;;;;;;;20.67;10.47;;;;;;;9.63;86.97;98874.33;1704933;84;21124;-62
2020/12/23 06:03:55;;;;;;;23.87;11.48;;;;;;;9.60;86.87;98881.19;1705321;84;21138;-63
2020/12/23 06:06:26;;;;;;;24.40;11.70;;;;;;;9.61;86.65;98873.86;1705649;84;21551;-63
2020/12/23 06:08:55;;;;;;;26.40;11.95;;;;;;;9.63;86.75;98866.20;1705344;84;21173;-61
2020/12/23 06:11:44;;;;;;;24.57;10.73;;;;;;;9.67;86.81;98864.41;1704895;84;21590;-64
2020/12/23 06:14:24;;;;;;;27.13;11.03;;;;;;;9.64;86.91;98873.18;1704711;84;21170;-62
2020/12/23 06:17:02;;;;;;;25.13;11.27;;;;;;;9.62;86.97;98876.80;1705492;84;21144;-63
2020/12/23 06:19:40;;;;;;;25.97;11.37;;;;;;;9.60;86.85;98865.50;1702743;84;21182;-63
2020/12/23 06:22:07;;;;;;;27.13;11.77;;;;;;;9.56;86.76;98870.80;1695748;84;21155;-62
2020/12/23 06:24:33;;;;;;;23.47;11.00;;;;;;;9.54;86.91;98879.83;1695585;84;21275;-66
2020/12/23 06:27:02;;;;;;;24.90;11.77;;;;;;;9.58;86.91;98887.52;1695198;84;21305;-65
2020/12/23 06:29:29;;;;;;;23.47;11.70;;;;;;;9.61;87.04;98873.86;1695296;85;21162;-64
2020/12/23 06:32:04;;;;;;;23.77;12.10;;;;;;;9.64;87.18;98865.84;1695212;85;21625;-63
2020/12/23 06:34:33;;;;;;;24.00;11.43;;;;;;;9.67;87.18;98865.17;1695028;84;21263;-64
2020/12/23 06:36:59;;;;;;;21.77;11.60;;;;;;;9.67;87.18;98880.66;1695180;85;21125;-62
2020/12/23 06:39:34;;;;;;;22.27;10.97;;;;;;;9.65;86.98;98893.17;1695461;84;21219;-63
2020/12/23 06:42:05;;;;;;;22.60;11.80;;;;;;;9.65;86.76;98889.66;1694501;84;21164;-64
2020/12/23 06:44:46;;;;;;;25.77;14.10;;;;;;;9.63;86.56;98885.95;1695409;84;21577;-62
2020/12/23 06:47:20;;;;;;;24.17;13.03;;;;;;;9.72;86.40;98891.26;1697558;84;21105;-63
2020/12/23 06:49:58;;;;;;;21.77;11.57;;;;;;;9.76;86.37;98888.66;1695515;84;21139;-63
2020/12/23 06:52:28;;;;;;;22.20;11.97;;;;;;;9.70;86.73;98897.58;1695187;84;21153;-65
2020/12/23 06:55:01;;;;;;;21.73;12.23;;;;;;;9.69;87.42;98890.02;1695159;84;21110;-64
2020/12/23 06:57:44;;;;;;;24.10;11.57;;;;;;;9.71;88.03;98899.14;1695821;84;21121;-63
2020/12/23 07:00:27;;;;;;;;;;;;;;;9.67;87.88;98896.31;1697864;83;21553;-65
2020/12/23 07:02:58;;;;;;;24.60;13.20;;;;;;;9.43;88.11;98902.23;1695465;84;20240;-63
2020/12/23 07:05:30;;;;;;;28.07;14.75;;;;;;;9.38;89.01;98901.08;1695297;84;21121;-63
2020/12/23 07:07:57;;;;;;;29.67;14.13;;;;;;;9.36;89.55;98903.34;1695723;84;21542;-63
2020/12/23 07:10:33;;;;;;;25.00;13.33;;;;;;;9.34;89.94;98908.28;1695156;84;21105;-61
2020/12/23 07:13:16;;;;;;;26.20;13.37;;;;;;;9.26;90.81;98904.53;1694281;83;21129;-62
2020/12/23 07:15:54;;;;;;;25.33;12.53;;;;;;;9.16;91.83;98910.36;1695607;84;21117;-61
2020/12/23 07:18:26;;;;;;;23.30;14.07;;;;;;;9.17;92.43;98915.45;1695256;84;21227;-61
2020/12/23 07:21:06;;;;;;;25.57;14.13;;;;;;;9.15;93.01;98914.17;1695243;84;21184;-61
2020/12/23 07:23:33;;;;;;;23.77;13.22;;;;;;;9.22;93.38;98913.11;1695369;84;21565;-61
2020/12/23 07:26:03;;;;;;;21.00;11.47;;;;;;;9.20;93.97;98914.78;1695205;84;21140;-63
2020/12/23 07:28:39;;;;;;;26.40;13.63;;;;;;;9.19;94.28;98899.66;1695152;84;21585;-61
2020/12/23 07:31:05;;;;;;;25.03;13.83;;;;;;;9.23;95.07;98910.61;1695649;84;21518;-62
2020/12/23 07:33:33;;;;;;;24.53;12.97;;;;;;;9.25;95.52;98912.44;1695348;84;21143;-64
2020/12/23 07:36:00;;;;;;;22.57;11.87;;;;;;;9.23;95.76;98917.38;1695792;84;21679;-61
2020/12/23 07:38:31;;;;;;;27.70;13.63;;;;;;;9.27;95.72;98916.95;1695517;84;21499;-62
2020/12/23 07:40:57;;;;;;;24.80;12.63;;;;;;;9.26;96.65;98915.35;1694249;85;21603;-64
2020/12/23 07:43:22;;;;;;;26.17;12.23;;;;;;;9.30;96.80;98916.86;1695341;84;21093;-62
2020/12/23 07:45:49;;;;;;;23.23;12.83;;;;;;;9.28;96.84;98914.48;1695298;84;21625;-64
2020/12/23 07:48:18;;;;;;;24.13;12.47;;;;;;;9.29;96.72;98909.30;1695885;85;21121;-62
2020/12/23 07:50:52;;;;;;;24.90;12.43;;;;;;;9.35;97.00;98905.81;1695127;85;21137;-69
2020/12/23 07:53:22;;;;;;;23.23;12.93;;;;;;;9.41;97.40;98901.80;1695287;85;21136;-64
2020/12/23 07:55:53;;;;;;;24.05;13.28;;;;;;;9.45;97.10;98909.45;1694700;84;21153;-65
2020/12/23 07:58:19;;;;;;;25.50;13.00;;;;;;;9.45;97.52;98907.53;1694525;84;21165;-61
2020/12/23 08:00:44;;;;;;;25.73;13.43;;;;;;;9.53;97.63;98909.38;1695014;83;21171;-64
2020/12/23 08:03:11;;;;;;;24.50;13.43;;;;;;;9.64;97.66;98905.67;1695455;85;21253;-62
2020/12/23 08:05:37;;;;;;;24.67;14.27;;;;;;;9.62;97.71;98903.32;1695188;83;21646;-63
2020/12/23 08:08:03;;;;;;;22.32;12.63;;;;;;;9.67;97.84;98912.56;1695232;85;21150;-62
2020/12/23 08:10:28;;;;;;;20.35;12.70;;;;;;;9.70;97.70;98916.55;1694903;84;21136;-63
2020/12/23 08:12:57;;;;;;;23.67;12.20;;;;;;;9.73;97.47;98913.16;1694986;85;21077;-63
2020/12/23 08:15:23;;;;;;;22.27;11.93;;;;;;;9.84;97.34;98908.09;1695148;84;21124;-64
2020/12/23 08:18:04;;;;;;;28.42;12.03;;;;;;;9.96;97.04;98914.34;1695330;84;21116;-66
2020/12/23 08:20:30;;;;;;;21.68;11.97;;;;;;;10.05;96.50;98910.95;1699961;84;21218;-63
2020/12/23 08:22:57;;;;;;;26.33;12.63;;;;;;;10.12;96.10;98913.13;1705078;84;21117;-63
2020/12/23 08:25:24;;;;;;;25.10;12.45;;;;;;;10.25;96.03;98912.58;1706640;83;21196;-66
2020/12/23 08:27:51;;;;;;;23.38;11.50;;;;;;;10.37;95.58;98914.73;1720942;83;21221;-66
2020/12/23 08:30:23;;;;;;;22.90;12.88;;;;;;;10.46;95.06;98911.92;1716173;83;21177;-65
2020/12/23 08:33:14;;;;;;;24.87;12.80;;;;;;;10.39;94.57;98917.09;1719673;83;21163;-64
2020/12/23 08:35:45;;;;;;;21.20;11.78;;;;;;;10.29;94.56;98914.28;1718015;83;21163;-66
2020/12/23 08:38:18;;;;;;;23.10;11.65;;;;;;;10.25;94.70;98918.80;1719785;83;21091;-66
2020/12/23 08:40:48;;;;;;;24.95;12.00;;;;;;;10.21;94.82;98915.73;1721323;83;21542;-65
2020/12/23 08:43:28;;;;;;;24.07;12.25;;;;;;;10.17;95.09;98912.91;1717749;83;21177;-66
2020/12/23 08:45:58;;;;;;;23.95;12.33;;;;;;;10.10;95.44;98914.80;1717728;83;21160;-66
2020/12/23 08:48:26;;;;;;;22.95;11.48;;;;;;;10.08;95.57;98902.17;1719026;83;21111;-66
2020/12/23 08:50:57;;;;;;;21.27;12.07;;;;;;;10.05;95.72;98906.88;1720539;83;21124;-65
2020/12/23 08:53:36;;;;;;;25.72;12.20;;;;;;;9.99;95.94;98904.73;1718775;83;21100;-66
2020/12/23 08:56:23;;;;;;;23.50;12.37;;;;;;;9.92;96.09;98907.22;1718404;83;21093;-64
2020/12/23 08:58:51;;;;;;;19.90;11.80;;;;;;;9.89;96.26;98917.38;1709121;83;21641;-67
2020/12/23 09:01:24;;;;;;;20.68;11.45;;;;;;;9.85;96.32;98930.00;1717980;83;21134;-64
2020/12/23 09:04:07;;;;;;;21.48;11.28;;;;;;;9.80;96.58;98927.50;1718804;83;21151;-66
2020/12/23 09:06:47;;;;;;;21.95;11.38;;;;;;;9.72;97.34;98922.41;1720619;83;21592;-65
2020/12/23 09:09:22;;;;;;;21.12;11.90;;;;;;;9.55;97.60;98930.16;1720809;83;21707;-64
2020/12/23 09:11:53;;;;;;;23.85;12.33;;;;;;;9.45;99.20;98928.40;1720816;83;21714;-64
2020/12/23 09:14:33;;;;;;;24.98;12.95;;;;;;;9.40;99.85;98918.59;1717781;83;21157;-62
2020/12/23 09:17:09;;;;;;;24.70;12.60;;;;;;;9.49;100.00;98911.16;1726185;83;21127;-64
2020/12/23 09:19:53;;;;;;;19.52;12.47;;;;;;;9.54;100.00;98906.11;1734444;83;21122;-64
2020/12/23 09:22:31;;;;;;;23.27;13.18;;;;;;;9.62;100.00;98903.32;1718419;83;21539;-66
2020/12/23 09:25:22;;;;;;;21.73;11.33;;;;;;;9.68;100.00;98906.03;1734745;83;21127;-65
2020/12/23 09:27:54;;;;;;;20.40;11.08;;;;;;;9.72;100.00;98904.80;1734637;83;21123;-63
2020/12/23 09:30:44;;;;;;;17.12;10.43;;;;;;;9.73;100.00;98909.09;1734800;83;21185;-65
2020/12/23 09:33:12;;;;;;;24.32;11.50;;;;;;;9.75;100.00;98905.48;1724931;83;21146;-66
2020/12/23 09:35:40;;;;;;;17.48;10.25;;;;;;;9.79;100.00;98891.49;1734470;83;21242;-65
2020/12/23 09:38:27;;;;;;;20.37;11.15;;;;;;;9.84;100.00;98898.06;1732046;83;21155;-66
2020/12/23 09:40:55;;;;;;;24.45;11.03;;;;;;;9.87;100.00;98898.73;1705265;83;21266;-64
2020/12/23 09:43:26;;;;;;;19.48;11.10;;;;;;;9.93;100.00;98902.03;1709557;83;21549;-64
2020/12/23 09:45:53;;;;;;;18.63;11.27;;;;;;;10.14;100.00;98893.23;1721498;83;21147;-65
2020/12/23 09:48:21;;;;;;;21.77;11.50;;;;;;;10.14;100.00;98893.23;1718833;83;21548;-65
2020/12/23 09:50:47;;;;;;;18.23;10.78;;;;;;;10.25;100.00;98883.55;1710623;83;21132;-63
2020/12/23 09:53:13;;;;;;;19.75;10.43;;;;;;;10.33;100.00;98889.43;1681092;84;21128;-65
2020/12/23 09:55:42;;;;;;;19.73;10.48;;;;;;;10.43;100.00;98882.75;1705208;84;21127;-64
2020/12/23 09:58:09;;;;;;;17.48;10.20;;;;;;;10.51;100.00;98879.13;1705241;84;21094;-65
2020/12/23 10:00:35;;;;;;;17.87;10.38;;;;;;;10.60;100.00;98879.24;1705232;84;21109;-64
2020/12/23 10:03:00;;;;;;;18.32;10.50;;;;;;;10.63;100.00;98875.84;1705076;84;21093;-66
2020/12/23 10:05:26;;;;;;;18.42;10.10;;;;;;;10.66;100.00;98867.02;1704456;84;21109;-65
2020/12/23 10:07:53;;;;;;;16.62;9.55;;;;;;;10.71;100.00;98866.00;1705335;83;21260;-62
2020/12/23 10:10:19;;;;;;;16.30;9.45;;;;;;;10.78;100.00;98862.69;1725070;83;21485;-64
2020/12/23 10:12:44;;;;;;;16.87;8.70;;;;;;;10.81;100.00;98851.14;1722301;83;21091;-66
2020/12/23 10:15:10;;;;;;;18.73;9.35;;;;;;;10.80;100.00;98855.02;1734637;83;21131;-65
2020/12/23 10:17:36;;;;;;;13.65;8.20;;;;;;;10.74;100.00;98852.30;1734829;83;21092;-65
2020/12/23 10:20:04;;;;;;;17.05;9.45;;;;;;;10.68;100.00;98852.53;1734602;82;21565;-66
2020/12/23 10:22:30;;;;;;;12.45;7.60;;;;;;;10.74;100.00;98858.52;1734322;83;21172;-66
2020/12/23 10:24:55;;;;;;;13.90;7.95;;;;;;;10.72;100.00;98863.52;1734288;83;21298;-64
2020/12/23 10:27:21;;;;;;;15.38;7.87;;;;;;;10.71;100.00;98855.70;1734204;83;21524;-63
2020/12/23 10:29:47;;;;;;;14.85;8.20;;;;;;;10.80;100.00;98850.35;1734190;83;21108;-64
2020/12/23 10:32:13;;;;;;;14.90;8.30;;;;;;;10.85;100.00;98840.63;1734191;83;21103;-64
2020/12/23 10:34:40;;;;;;;14.18;8.10;;;;;;;10.96;100.00;98854.49;1734774;83;21208;-62
2020/12/23 10:37:06;;;;;;;11.83;6.80;;;;;;;11.02;100.00;98857.20;1734403;83;21127;-65
2020/12/23 10:39:32;;;;;;;14.80;7.92;;;;;;;11.07;99.75;98855.02;1734475;83;21536;-63
2020/12/23 10:41:57;;;;;;;13.30;7.62;;;;;;;11.11;99.82;98846.97;1734462;83;21556;-62
2020/12/23 10:44:24;;;;;;;14.43;7.78;;;;;;;11.13;99.40;98844.72;1734519;83;21127;-63
2020/12/23 10:46:59;;;;;;;13.43;7.33;;;;;;;11.13;99.11;98846.84;1734346;83;21134;-65
2020/12/23 10:49:25;;;;;;;13.13;7.00;;;;;;;11.09;98.78;98840.55;1734242;83;21133;-64
2020/12/23 10:51:52;;;;;;;11.20;6.42;;;;;;;11.02;98.61;98843.05;1734536;83;21554;-64
2020/12/23 10:54:18;;;;;;;15.48;7.10;;;;;;;10.98;98.61;98848.97;1734196;83;21582;-63
2020/12/23 10:56:44;;;;;;;11.57;6.50;;;;;;;10.98;98.63;98854.39;1734227;83;21602;-64
2020/12/23 10:59:11;;;;;;;12.20;6.42;;;;;;;10.99;98.33;98849.73;1734633;83;21180;-65
2020/12/23 11:01:37;;;;;;;12.95;6.97;;;;;;;10.98;98.17;98853.03;1734263;83;21166;-64
2020/12/23 11:04:04;;;;;;;11.53;5.80;;;;;;;11.02;97.82;98840.92;1734498;83;21133;-64
2020/12/23 11:06:29;;;;;;;12.25;6.33;;;;;;;11.00;97.32;98841.25;1734442;83;21127;-66
2020/12/23 11:08:55;;;;;;;11.60;6.30;;;;;;;10.95;96.89;98840.13;1734665;83;21508;-66
2020/12/23 11:11:21;;;;;;;13.75;7.05;;;;;;;10.99;96.77;98839.66;1734624;83;21508;-64
2020/12/23 11:13:46;;;;;;;14.38;7.60;;;;;;;11.03;96.64;98826.98;1734678;83;21485;-65
2020/12/23 11:16:14;;;;;;;14.58;7.42;;;;;;;11.09;96.38;98828.34;1733042;83;21564;-56
2020/12/23 11:18:40;;;;;;;15.25;7.47;;;;;;;11.20;95.84;98831.34;1731544;83;21115;-57
2020/12/23 11:21:06;;;;;;;14.45;7.25;;;;;;;11.22;95.59;98843.19;1730983;82;21711;-62
2020/12/23 11:23:32;;;;;;;11.70;7.03;;;;;;;11.21;95.45;98838.33;1724230;83;21150;-67
2020/12/23 11:25:58;;;;;;;13.83;6.80;;;;;;;11.27;95.18;98838.88;1723930;83;21151;-64
2020/12/23 11:28:24;;;;;;;11.30;6.80;;;;;;;11.29;94.70;98835.23;1724301;83;21303;-65
2020/12/23 11:30:49;;;;;;;16.85;8.70;;;;;;;11.27;94.15;98834.80;1724131;83;21265;-59
2020/12/23 11:33:15;;;;;;;16.32;7.92;;;;;;;11.25;93.78;98827.59;1720036;83;21237;-63